sensor_id;sensor_type;location;lat;lon;timestamp;P1;durP1;ratioP1;P2;durP2;ratioP2
29838;SDS011;18669;53.356;-1.464;2023-02-07T00:01:15;13.40;;;5.72;;
29838;SDS011;18669;53.356;-1.464;2023-02-07T00:03:42;10.90;;;5.20;;
29838;SDS011;18669;53.356;-1.464;2023-02-07T00:06:10;11.95;;;5.50;;
29838;SDS011;18669;53.356;-1.464;2023-02-07T00:08:41;12.13;;;6.30;;
29838;SDS011;18669;53.356;-1.464;2023-02-07T00:11:08;11.05;;;6.10;;
29838;SDS011;18669;53.356;-1.464;2023-02-07T00:13:36;14.55;;;5.35;;
29838;SDS011;18669;53.356;-1.464;2023-02-07T00:16:03;13.25;;;5.95;;
29838;SDS011;18669;53.356;-1.464;2023-02-07T00:18:31;10.52;;;5.40;;
29838;SDS011;18669;53.356;-1.464;2023-02-07T00:20:58;10.68;;;5.22;;
29838;SDS011;18669;53.356;-1.464;2023-02-07T00:23:26;13.88;;;5.97;;
29838;SDS011;18669;53.356;-1.464;2023-02-07T00:25:52;14.35;;;6.05;;
29838;SDS011;18669;53.356;-1.464;2023-02-07T00:28:18;13.05;;;6.13;;
29838;SDS011;18669;53.356;-1.464;2023-02-07T00:30:44;13.30;;;5.72;;
29838;SDS011;18669;53.356;-1.464;2023-02-07T00:35:37;11.63;;;5.22;;
29838;SDS011;18669;53.356;-1.464;2023-02-07T00:38:03;10.88;;;5.53;;
29838;SDS011;18669;53.356;-1.464;2023-02-07T00:40:29;11.45;;;5.57;;
29838;SDS011;18669;53.356;-1.464;2023-02-07T00:42:55;12.63;;;5.95;;
29838;SDS011;18669;53.356;-1.464;2023-02-07T00:45:21;16.38;;;6.15;;
29838;SDS011;18669;53.356;-1.464;2023-02-07T00:47:47;13.55;;;5.63;;
29838;SDS011;18669;53.356;-1.464;2023-02-07T00:50:13;10.70;;;5.85;;
29838;SDS011;18669;53.356;-1.464;2023-02-07T00:52:39;11.68;;;5.78;;
29838;SDS011;18669;53.356;-1.464;2023-02-07T00:55:05;14.43;;;5.93;;
29838;SDS011;18669;53.356;-1.464;2023-02-07T00:59:57;11.45;;;5.13;;
29838;SDS011;18669;53.356;-1.464;2023-02-07T01:02:23;12.13;;;5.60;;
29838;SDS011;18669;53.356;-1.464;2023-02-07T01:04:49;12.95;;;5.35;;
29838;SDS011;18669;53.356;-1.464;2023-02-07T01:07:15;13.10;;;6.00;;
29838;SDS011;18669;53.356;-1.464;2023-02-07T01:09:41;13.27;;;5.95;;
29838;SDS011;18669;53.356;-1.464;2023-02-07T01:12:07;9.90;;;4.90;;
29838;SDS011;18669;53.356;-1.464;2023-02-07T01:14:33;15.77;;;5.68;;
29838;SDS011;18669;53.356;-1.464;2023-02-07T01:16:58;10.23;;;5.95;;
29838;SDS011;18669;53.356;-1.464;2023-02-07T01:19:24;13.35;;;5.50;;
29838;SDS011;18669;53.356;-1.464;2023-02-07T01:21:50;9.50;;;5.65;;
29838;SDS011;18669;53.356;-1.464;2023-02-07T01:24:16;11.65;;;5.80;;
29838;SDS011;18669;53.356;-1.464;2023-02-07T01:26:42;14.23;;;5.18;;
29838;SDS011;18669;53.356;-1.464;2023-02-07T01:29:09;12.00;;;4.85;;
29838;SDS011;18669;53.356;-1.464;2023-02-07T01:31:40;13.10;;;5.57;;
29838;SDS011;18669;53.356;-1.464;2023-02-07T01:34:06;9.70;;;5.50;;
29838;SDS011;18669;53.356;-1.464;2023-02-07T01:36:32;14.93;;;5.47;;
29838;SDS011;18669;53.356;-1.464;2023-02-07T01:38:58;17.48;;;5.90;;
29838;SDS011;18669;53.356;-1.464;2023-02-07T01:41:25;15.68;;;5.00;;
29838;SDS011;18669;53.356;-1.464;2023-02-07T01:43:52;14.43;;;5.15;;
29838;SDS011;18669;53.356;-1.464;2023-02-07T01:46:27;15.70;;;5.40;;
29838;SDS011;18669;53.356;-1.464;2023-02-07T01:48:54;11.90;;;5.50;;
29838;SDS011;18669;53.356;-1.464;2023-02-07T01:51:22;13.13;;;5.75;;
29838;SDS011;18669;53.356;-1.464;2023-02-07T01:53:50;13.15;;;5.53;;
29838;SDS011;18669;53.356;-1.464;2023-02-07T01:56:19;9.77;;;5.15;;
29838;SDS011;18669;53.356;-1.464;2023-02-07T01:58:46;11.68;;;5.47;;
29838;SDS011;18669;53.356;-1.464;2023-02-07T02:01:16;13.68;;;5.75;;
29838;SDS011;18669;53.356;-1.464;2023-02-07T02:03:48;9.95;;;5.63;;
29838;SDS011;18669;53.356;-1.464;2023-02-07T02:06:15;13.65;;;5.70;;
29838;SDS011;18669;53.356;-1.464;2023-02-07T02:08:43;18.15;;;5.93;;
29838;SDS011;18669;53.356;-1.464;2023-02-07T02:14:08;10.27;;;5.60;;
29838;SDS011;18669;53.356;-1.464;2023-02-07T02:19:43;10.75;;;5.97;;
29838;SDS011;18669;53.356;-1.464;2023-02-07T02:22:33;16.70;;;5.90;;
29838;SDS011;18669;53.356;-1.464;2023-02-07T02:25:17;13.13;;;5.30;;
29838;SDS011;18669;53.356;-1.464;2023-02-07T02:38:17;15.20;;;6.97;;
29838;SDS011;18669;53.356;-1.464;2023-02-07T02:40:56;15.98;;;6.78;;
29838;SDS011;18669;53.356;-1.464;2023-02-07T02:43:44;13.10;;;5.72;;
29838;SDS011;18669;53.356;-1.464;2023-02-07T02:46:21;14.27;;;6.13;;
29838;SDS011;18669;53.356;-1.464;2023-02-07T02:48:51;9.02;;;5.80;;
29838;SDS011;18669;53.356;-1.464;2023-02-07T02:51:19;11.13;;;6.35;;
29838;SDS011;18669;53.356;-1.464;2023-02-07T02:53:55;11.60;;;6.28;;
29838;SDS011;18669;53.356;-1.464;2023-02-07T03:02:05;11.98;;;6.18;;
29838;SDS011;18669;53.356;-1.464;2023-02-07T03:04:52;13.27;;;5.85;;
29838;SDS011;18669;53.356;-1.464;2023-02-07T03:10:16;19.25;;;6.50;;
29838;SDS011;18669;53.356;-1.464;2023-02-07T03:18:55;12.07;;;6.00;;
29838;SDS011;18669;53.356;-1.464;2023-02-07T03:21:40;12.02;;;6.00;;
29838;SDS011;18669;53.356;-1.464;2023-02-07T03:24:15;17.70;;;6.78;;
29838;SDS011;18669;53.356;-1.464;2023-02-07T03:26:46;8.90;;;5.97;;
29838;SDS011;18669;53.356;-1.464;2023-02-07T03:29:15;16.25;;;5.95;;
29838;SDS011;18669;53.356;-1.464;2023-02-07T03:31:44;11.98;;;6.32;;
29838;SDS011;18669;53.356;-1.464;2023-02-07T03:34:16;14.85;;;6.03;;
29838;SDS011;18669;53.356;-1.464;2023-02-07T03:39:29;15.15;;;6.35;;
29838;SDS011;18669;53.356;-1.464;2023-02-07T03:41:56;23.27;;;6.63;;
29838;SDS011;18669;53.356;-1.464;2023-02-07T03:44:25;11.80;;;6.20;;
29838;SDS011;18669;53.356;-1.464;2023-02-07T03:46:54;15.30;;;5.95;;
29838;SDS011;18669;53.356;-1.464;2023-02-07T03:49:20;8.73;;;5.75;;
29838;SDS011;18669;53.356;-1.464;2023-02-07T03:54:13;12.02;;;5.93;;
29838;SDS011;18669;53.356;-1.464;2023-02-07T03:59:05;9.80;;;5.75;;
29838;SDS011;18669;53.356;-1.464;2023-02-07T04:01:31;13.02;;;6.00;;
29838;SDS011;18669;53.356;-1.464;2023-02-07T04:03:57;13.82;;;6.35;;
29838;SDS011;18669;53.356;-1.464;2023-02-07T04:06:23;14.98;;;5.57;;
29838;SDS011;18669;53.356;-1.464;2023-02-07T04:08:49;12.88;;;5.65;;
29838;SDS011;18669;53.356;-1.464;2023-02-07T04:11:15;8.98;;;5.60;;
29838;SDS011;18669;53.356;-1.464;2023-02-07T04:13:41;12.32;;;6.05;;
29838;SDS011;18669;53.356;-1.464;2023-02-07T04:16:07;15.38;;;6.45;;
29838;SDS011;18669;53.356;-1.464;2023-02-07T04:18:33;15.52;;;5.88;;
29838;SDS011;18669;53.356;-1.464;2023-02-07T04:21:02;11.25;;;6.38;;
29838;SDS011;18669;53.356;-1.464;2023-02-07T04:23:30;12.43;;;6.25;;
29838;SDS011;18669;53.356;-1.464;2023-02-07T04:25:57;15.45;;;7.22;;
29838;SDS011;18669;53.356;-1.464;2023-02-07T04:28:23;10.80;;;5.22;;
29838;SDS011;18669;53.356;-1.464;2023-02-07T04:30:49;14.30;;;6.10;;
29838;SDS011;18669;53.356;-1.464;2023-02-07T04:33:16;16.10;;;6.03;;
29838;SDS011;18669;53.356;-1.464;2023-02-07T04:35:42;21.45;;;5.95;;
29838;SDS011;18669;53.356;-1.464;2023-02-07T04:38:08;9.95;;;5.13;;
29838;SDS011;18669;53.356;-1.464;2023-02-07T04:40:34;12.60;;;6.05;;
29838;SDS011;18669;53.356;-1.464;2023-02-07T04:43:03;10.38;;;5.93;;
29838;SDS011;18669;53.356;-1.464;2023-02-07T04:45:29;12.80;;;6.30;;
29838;SDS011;18669;53.356;-1.464;2023-02-07T04:47:55;12.82;;;5.95;;
29838;SDS011;18669;53.356;-1.464;2023-02-07T04:50:21;15.27;;;5.82;;
29838;SDS011;18669;53.356;-1.464;2023-02-07T04:52:47;15.65;;;5.85;;
29838;SDS011;18669;53.356;-1.464;2023-02-07T04:55:13;13.95;;;6.20;;
29838;SDS011;18669;53.356;-1.464;2023-02-07T04:57:39;14.10;;;5.22;;
29838;SDS011;18669;53.356;-1.464;2023-02-07T05:00:05;11.85;;;5.20;;
29838;SDS011;18669;53.356;-1.464;2023-02-07T05:02:31;11.25;;;5.20;;
29838;SDS011;18669;53.356;-1.464;2023-02-07T05:04:57;11.38;;;5.70;;
29838;SDS011;18669;53.356;-1.464;2023-02-07T05:07:23;8.68;;;5.43;;
29838;SDS011;18669;53.356;-1.464;2023-02-07T05:09:49;10.00;;;6.10;;
29838;SDS011;18669;53.356;-1.464;2023-02-07T05:12:15;10.25;;;5.15;;
29838;SDS011;18669;53.356;-1.464;2023-02-07T05:14:41;14.30;;;5.57;;
29838;SDS011;18669;53.356;-1.464;2023-02-07T05:17:07;11.30;;;4.88;;
29838;SDS011;18669;53.356;-1.464;2023-02-07T05:19:33;10.38;;;5.15;;
29838;SDS011;18669;53.356;-1.464;2023-02-07T05:21:59;8.90;;;5.10;;
29838;SDS011;18669;53.356;-1.464;2023-02-07T05:24:25;10.13;;;5.43;;
29838;SDS011;18669;53.356;-1.464;2023-02-07T05:26:51;11.98;;;4.63;;
29838;SDS011;18669;53.356;-1.464;2023-02-07T05:29:17;10.60;;;4.80;;
29838;SDS011;18669;53.356;-1.464;2023-02-07T05:31:43;12.05;;;4.60;;
29838;SDS011;18669;53.356;-1.464;2023-02-07T05:34:27;11.73;;;4.50;;
29838;SDS011;18669;53.356;-1.464;2023-02-07T05:36:54;22.50;;;5.65;;
29838;SDS011;18669;53.356;-1.464;2023-02-07T05:39:20;15.88;;;5.22;;
29838;SDS011;18669;53.356;-1.464;2023-02-07T05:41:46;13.30;;;4.55;;
29838;SDS011;18669;53.356;-1.464;2023-02-07T05:44:12;11.27;;;4.18;;
29838;SDS011;18669;53.356;-1.464;2023-02-07T05:46:38;11.45;;;4.47;;
29838;SDS011;18669;53.356;-1.464;2023-02-07T05:49:04;7.68;;;4.43;;
29838;SDS011;18669;53.356;-1.464;2023-02-07T05:51:30;8.65;;;4.20;;
29838;SDS011;18669;53.356;-1.464;2023-02-07T05:53:56;7.68;;;4.03;;
29838;SDS011;18669;53.356;-1.464;2023-02-07T05:56:22;10.15;;;4.30;;
29838;SDS011;18669;53.356;-1.464;2023-02-07T05:58:47;10.52;;;4.40;;
29838;SDS011;18669;53.356;-1.464;2023-02-07T06:01:13;15.43;;;4.80;;
29838;SDS011;18669;53.356;-1.464;2023-02-07T06:03:39;8.98;;;4.35;;
29838;SDS011;18669;53.356;-1.464;2023-02-07T06:06:05;11.60;;;4.90;;
29838;SDS011;18669;53.356;-1.464;2023-02-07T06:08:31;9.80;;;4.53;;
29838;SDS011;18669;53.356;-1.464;2023-02-07T06:10:57;8.23;;;3.45;;
29838;SDS011;18669;53.356;-1.464;2023-02-07T06:13:23;10.77;;;4.00;;
29838;SDS011;18669;53.356;-1.464;2023-02-07T06:15:49;6.70;;;3.70;;
29838;SDS011;18669;53.356;-1.464;2023-02-07T06:18:15;8.52;;;3.72;;
29838;SDS011;18669;53.356;-1.464;2023-02-07T06:20:41;7.38;;;4.10;;
29838;SDS011;18669;53.356;-1.464;2023-02-07T06:23:07;8.88;;;3.90;;
29838;SDS011;18669;53.356;-1.464;2023-02-07T06:25:33;6.65;;;3.92;;
29838;SDS011;18669;53.356;-1.464;2023-02-07T06:27:59;14.52;;;3.60;;
29838;SDS011;18669;53.356;-1.464;2023-02-07T06:30:25;10.38;;;3.67;;
29838;SDS011;18669;53.356;-1.464;2023-02-07T06:32:51;5.90;;;2.95;;
29838;SDS011;18669;53.356;-1.464;2023-02-07T06:35:17;15.82;;;4.18;;
29838;SDS011;18669;53.356;-1.464;2023-02-07T06:37:43;18.05;;;4.00;;
29838;SDS011;18669;53.356;-1.464;2023-02-07T06:40:09;14.32;;;4.15;;
29838;SDS011;18669;53.356;-1.464;2023-02-07T06:45:02;18.83;;;6.20;;
29838;SDS011;18669;53.356;-1.464;2023-02-07T06:47:28;22.27;;;7.07;;
29838;SDS011;18669;53.356;-1.464;2023-02-07T06:49:54;12.32;;;4.10;;
29838;SDS011;18669;53.356;-1.464;2023-02-07T06:52:20;9.00;;;3.42;;
29838;SDS011;18669;53.356;-1.464;2023-02-07T06:54:46;8.65;;;3.72;;
29838;SDS011;18669;53.356;-1.464;2023-02-07T06:57:12;7.57;;;3.28;;
29838;SDS011;18669;53.356;-1.464;2023-02-07T06:59:38;9.43;;;3.85;;
29838;SDS011;18669;53.356;-1.464;2023-02-07T07:02:04;10.82;;;3.20;;
29838;SDS011;18669;53.356;-1.464;2023-02-07T07:04:30;15.55;;;4.22;;
29838;SDS011;18669;53.356;-1.464;2023-02-07T07:06:56;43.08;;;21.10;;
29838;SDS011;18669;53.356;-1.464;2023-02-07T07:11:48;6.82;;;3.67;;
29838;SDS011;18669;53.356;-1.464;2023-02-07T07:14:14;12.80;;;4.15;;
29838;SDS011;18669;53.356;-1.464;2023-02-07T07:16:40;11.32;;;3.70;;
29838;SDS011;18669;53.356;-1.464;2023-02-07T07:19:06;7.43;;;3.33;;
29838;SDS011;18669;53.356;-1.464;2023-02-07T07:21:32;10.57;;;4.15;;
29838;SDS011;18669;53.356;-1.464;2023-02-07T07:23:58;12.43;;;4.30;;
29838;SDS011;18669;53.356;-1.464;2023-02-07T07:26:24;7.15;;;3.45;;
29838;SDS011;18669;53.356;-1.464;2023-02-07T07:28:50;10.15;;;3.95;;
29838;SDS011;18669;53.356;-1.464;2023-02-07T07:31:16;6.75;;;3.67;;
29838;SDS011;18669;53.356;-1.464;2023-02-07T07:33:42;14.35;;;3.90;;
29838;SDS011;18669;53.356;-1.464;2023-02-07T07:36:08;11.02;;;3.67;;
29838;SDS011;18669;53.356;-1.464;2023-02-07T07:38:34;10.05;;;3.47;;
29838;SDS011;18669;53.356;-1.464;2023-02-07T07:41:00;13.00;;;4.30;;
29838;SDS011;18669;53.356;-1.464;2023-02-07T07:43:26;9.75;;;3.25;;
29838;SDS011;18669;53.356;-1.464;2023-02-07T07:45:53;8.98;;;3.88;;
29838;SDS011;18669;53.356;-1.464;2023-02-07T07:48:21;9.75;;;3.97;;
29838;SDS011;18669;53.356;-1.464;2023-02-07T07:50:48;8.55;;;4.15;;
29838;SDS011;18669;53.356;-1.464;2023-02-07T07:55:40;11.27;;;3.63;;
29838;SDS011;18669;53.356;-1.464;2023-02-07T07:58:06;8.02;;;3.58;;
29838;SDS011;18669;53.356;-1.464;2023-02-07T08:00:32;13.30;;;3.97;;
29838;SDS011;18669;53.356;-1.464;2023-02-07T08:02:58;10.60;;;3.72;;
29838;SDS011;18669;53.356;-1.464;2023-02-07T08:05:24;12.10;;;4.78;;
29838;SDS011;18669;53.356;-1.464;2023-02-07T08:07:50;11.98;;;4.20;;
29838;SDS011;18669;53.356;-1.464;2023-02-07T08:10:16;12.20;;;4.32;;
29838;SDS011;18669;53.356;-1.464;2023-02-07T08:12:42;10.45;;;4.05;;
29838;SDS011;18669;53.356;-1.464;2023-02-07T08:15:09;13.30;;;5.35;;
29838;SDS011;18669;53.356;-1.464;2023-02-07T08:17:35;11.07;;;4.00;;
29838;SDS011;18669;53.356;-1.464;2023-02-07T08:20:02;13.52;;;3.58;;
29838;SDS011;18669;53.356;-1.464;2023-02-07T08:22:29;8.85;;;3.08;;
29838;SDS011;18669;53.356;-1.464;2023-02-07T08:24:55;12.90;;;4.10;;
29838;SDS011;18669;53.356;-1.464;2023-02-07T08:27:21;11.75;;;4.10;;
29838;SDS011;18669;53.356;-1.464;2023-02-07T08:29:47;9.57;;;3.65;;
29838;SDS011;18669;53.356;-1.464;2023-02-07T08:32:13;13.00;;;3.65;;
29838;SDS011;18669;53.356;-1.464;2023-02-07T08:34:39;8.88;;;3.30;;
29838;SDS011;18669;53.356;-1.464;2023-02-07T08:37:06;11.20;;;3.40;;
29838;SDS011;18669;53.356;-1.464;2023-02-07T08:39:33;10.13;;;3.50;;
29838;SDS011;18669;53.356;-1.464;2023-02-07T08:42:00;11.93;;;4.43;;
29838;SDS011;18669;53.356;-1.464;2023-02-07T08:44:26;9.45;;;4.03;;
29838;SDS011;18669;53.356;-1.464;2023-02-07T08:49:18;8.88;;;4.00;;
29838;SDS011;18669;53.356;-1.464;2023-02-07T08:51:44;11.15;;;4.72;;
29838;SDS011;18669;53.356;-1.464;2023-02-07T08:54:10;10.25;;;3.53;;
29838;SDS011;18669;53.356;-1.464;2023-02-07T08:56:36;7.38;;;3.67;;
29838;SDS011;18669;53.356;-1.464;2023-02-07T08:59:02;15.23;;;3.90;;
29838;SDS011;18669;53.356;-1.464;2023-02-07T09:01:28;9.50;;;3.60;;
29838;SDS011;18669;53.356;-1.464;2023-02-07T09:03:54;12.65;;;3.55;;
29838;SDS011;18669;53.356;-1.464;2023-02-07T09:06:21;8.25;;;3.45;;
29838;SDS011;18669;53.356;-1.464;2023-02-07T09:08:48;11.15;;;3.50;;
29838;SDS011;18669;53.356;-1.464;2023-02-07T09:13:40;16.45;;;4.53;;
29838;SDS011;18669;53.356;-1.464;2023-02-07T09:16:10;11.38;;;5.03;;
29838;SDS011;18669;53.356;-1.464;2023-02-07T09:18:37;15.52;;;4.55;;
29838;SDS011;18669;53.356;-1.464;2023-02-07T09:21:03;8.68;;;4.25;;
29838;SDS011;18669;53.356;-1.464;2023-02-07T09:23:30;9.57;;;4.25;;
29838;SDS011;18669;53.356;-1.464;2023-02-07T09:25:59;18.40;;;4.32;;
29838;SDS011;18669;53.356;-1.464;2023-02-07T09:28:28;9.07;;;3.90;;
29838;SDS011;18669;53.356;-1.464;2023-02-07T09:30:54;12.25;;;5.15;;
29838;SDS011;18669;53.356;-1.464;2023-02-07T09:33:22;11.65;;;4.45;;
29838;SDS011;18669;53.356;-1.464;2023-02-07T09:35:48;9.48;;;4.18;;
29838;SDS011;18669;53.356;-1.464;2023-02-07T09:38:16;10.32;;;4.10;;
29838;SDS011;18669;53.356;-1.464;2023-02-07T09:40:44;10.80;;;4.18;;
29838;SDS011;18669;53.356;-1.464;2023-02-07T09:45:51;8.43;;;4.40;;
29838;SDS011;18669;53.356;-1.464;2023-02-07T09:48:25;12.68;;;4.68;;
29838;SDS011;18669;53.356;-1.464;2023-02-07T09:50:58;8.60;;;4.20;;
29838;SDS011;18669;53.356;-1.464;2023-02-07T09:53:28;13.45;;;5.10;;
29838;SDS011;18669;53.356;-1.464;2023-02-07T09:56:04;12.70;;;4.20;;
29838;SDS011;18669;53.356;-1.464;2023-02-07T10:03:40;9.48;;;3.70;;
29838;SDS011;18669;53.356;-1.464;2023-02-07T10:06:15;15.25;;;4.22;;
29838;SDS011;18669;53.356;-1.464;2023-02-07T10:08:48;12.32;;;3.67;;
29838;SDS011;18669;53.356;-1.464;2023-02-07T10:16:34;16.90;;;4.38;;
29838;SDS011;18669;53.356;-1.464;2023-02-07T10:27:30;10.98;;;3.80;;
29838;SDS011;18669;53.356;-1.464;2023-02-07T10:32:51;10.90;;;2.88;;
29838;SDS011;18669;53.356;-1.464;2023-02-07T10:35:20;13.57;;;2.70;;
29838;SDS011;18669;53.356;-1.464;2023-02-07T10:37:50;12.32;;;2.10;;
29838;SDS011;18669;53.356;-1.464;2023-02-07T10:40:27;14.05;;;2.38;;
29838;SDS011;18669;53.356;-1.464;2023-02-07T10:43:32;23.08;;;4.80;;
29838;SDS011;18669;53.356;-1.464;2023-02-07T10:46:01;16.17;;;3.53;;
29838;SDS011;18669;53.356;-1.464;2023-02-07T10:48:30;18.83;;;5.07;;
29838;SDS011;18669;53.356;-1.464;2023-02-07T10:50:58;12.55;;;3.15;;
29838;SDS011;18669;53.356;-1.464;2023-02-07T10:56:16;11.40;;;3.17;;
29838;SDS011;18669;53.356;-1.464;2023-02-07T10:58:44;11.40;;;2.88;;
29838;SDS011;18669;53.356;-1.464;2023-02-07T11:03:44;12.93;;;2.65;;
29838;SDS011;18669;53.356;-1.464;2023-02-07T11:06:12;15.20;;;3.22;;
29838;SDS011;18669;53.356;-1.464;2023-02-07T11:08:40;12.05;;;3.08;;
29838;SDS011;18669;53.356;-1.464;2023-02-07T11:11:23;12.90;;;2.72;;
29838;SDS011;18669;53.356;-1.464;2023-02-07T11:14:03;12.45;;;3.20;;
29838;SDS011;18669;53.356;-1.464;2023-02-07T11:16:31;11.98;;;3.15;;
29838;SDS011;18669;53.356;-1.464;2023-02-07T11:18:58;12.82;;;3.00;;
29838;SDS011;18669;53.356;-1.464;2023-02-07T11:24:12;9.45;;;2.33;;
29838;SDS011;18669;53.356;-1.464;2023-02-07T11:26:52;10.65;;;2.20;;
29838;SDS011;18669;53.356;-1.464;2023-02-07T11:29:21;16.08;;;2.67;;
29838;SDS011;18669;53.356;-1.464;2023-02-07T11:31:49;15.20;;;2.67;;
29838;SDS011;18669;53.356;-1.464;2023-02-07T11:39:42;12.07;;;2.90;;
29838;SDS011;18669;53.356;-1.464;2023-02-07T11:42:29;10.50;;;2.75;;
29838;SDS011;18669;53.356;-1.464;2023-02-07T11:44:56;9.63;;;2.30;;
29838;SDS011;18669;53.356;-1.464;2023-02-07T11:47:28;9.85;;;2.42;;
29838;SDS011;18669;53.356;-1.464;2023-02-07T11:49:56;21.25;;;3.75;;
29838;SDS011;18669;53.356;-1.464;2023-02-07T11:52:25;10.55;;;2.60;;
29838;SDS011;18669;53.356;-1.464;2023-02-07T11:54:52;14.13;;;2.92;;
29838;SDS011;18669;53.356;-1.464;2023-02-07T11:57:21;12.52;;;3.33;;
29838;SDS011;18669;53.356;-1.464;2023-02-07T12:02:35;11.18;;;2.60;;
29838;SDS011;18669;53.356;-1.464;2023-02-07T12:05:09;21.33;;;3.47;;
29838;SDS011;18669;53.356;-1.464;2023-02-07T12:07:47;10.88;;;2.80;;
29838;SDS011;18669;53.356;-1.464;2023-02-07T12:10:22;8.48;;;3.25;;
29838;SDS011;18669;53.356;-1.464;2023-02-07T12:12:56;11.50;;;3.35;;
29838;SDS011;18669;53.356;-1.464;2023-02-07T12:15:37;10.25;;;2.70;;
29838;SDS011;18669;53.356;-1.464;2023-02-07T12:18:09;13.20;;;3.15;;
29838;SDS011;18669;53.356;-1.464;2023-02-07T12:20:57;15.20;;;3.22;;
29838;SDS011;18669;53.356;-1.464;2023-02-07T12:23:38;10.48;;;3.00;;
29838;SDS011;18669;53.356;-1.464;2023-02-07T12:26:22;10.05;;;2.80;;
29838;SDS011;18669;53.356;-1.464;2023-02-07T12:34:16;15.93;;;4.03;;
29838;SDS011;18669;53.356;-1.464;2023-02-07T12:36:50;7.18;;;2.70;;
29838;SDS011;18669;53.356;-1.464;2023-02-07T12:39:38;11.93;;;3.33;;
29838;SDS011;18669;53.356;-1.464;2023-02-07T12:42:53;14.27;;;3.30;;
29838;SDS011;18669;53.356;-1.464;2023-02-07T12:45:02;12.63;;;3.25;;
29838;SDS011;18669;53.356;-1.464;2023-02-07T12:54:10;23.15;;;4.50;;
29838;SDS011;18669;53.356;-1.464;2023-02-07T13:06:47;17.40;;;8.70;;
29838;SDS011;18669;53.356;-1.464;2023-02-07T13:09:52;20.40;;;9.45;;
29838;SDS011;18669;53.356;-1.464;2023-02-07T13:12:23;20.30;;;9.38;;
29838;SDS011;18669;53.356;-1.464;2023-02-07T13:15:05;21.52;;;11.23;;
29838;SDS011;18669;53.356;-1.464;2023-02-07T13:23:01;32.70;;;16.17;;
29838;SDS011;18669;53.356;-1.464;2023-02-07T13:25:38;31.63;;;16.67;;
29838;SDS011;18669;53.356;-1.464;2023-02-07T13:28:23;27.38;;;14.57;;
29838;SDS011;18669;53.356;-1.464;2023-02-07T13:30:54;36.55;;;18.75;;
29838;SDS011;18669;53.356;-1.464;2023-02-07T13:35:57;31.67;;;15.18;;
29838;SDS011;18669;53.356;-1.464;2023-02-07T13:41:19;33.03;;;16.33;;
29838;SDS011;18669;53.356;-1.464;2023-02-07T13:44:08;34.58;;;15.30;;
29838;SDS011;18669;53.356;-1.464;2023-02-07T13:49:39;35.17;;;15.48;;
29838;SDS011;18669;53.356;-1.464;2023-02-07T13:55:38;27.15;;;11.52;;
29838;SDS011;18669;53.356;-1.464;2023-02-07T14:01:20;26.40;;;11.07;;
29838;SDS011;18669;53.356;-1.464;2023-02-07T14:04:04;20.15;;;9.63;;
29838;SDS011;18669;53.356;-1.464;2023-02-07T14:06:34;20.38;;;6.88;;
29838;SDS011;18669;53.356;-1.464;2023-02-07T14:09:09;16.52;;;6.93;;
29838;SDS011;18669;53.356;-1.464;2023-02-07T14:11:57;30.23;;;11.20;;
29838;SDS011;18669;53.356;-1.464;2023-02-07T14:14:36;20.05;;;7.57;;
29838;SDS011;18669;53.356;-1.464;2023-02-07T14:17:06;16.80;;;5.68;;
29838;SDS011;18669;53.356;-1.464;2023-02-07T14:32:38;15.60;;;4.40;;
29838;SDS011;18669;53.356;-1.464;2023-02-07T14:43:16;20.83;;;8.27;;
29838;SDS011;18669;53.356;-1.464;2023-02-07T14:51:04;15.30;;;7.13;;
29838;SDS011;18669;53.356;-1.464;2023-02-07T14:53:38;12.18;;;6.90;;
29838;SDS011;18669;53.356;-1.464;2023-02-07T14:56:05;13.32;;;6.30;;
29838;SDS011;18669;53.356;-1.464;2023-02-07T14:58:39;23.63;;;8.38;;
29838;SDS011;18669;53.356;-1.464;2023-02-07T15:01:13;29.20;;;11.77;;
29838;SDS011;18669;53.356;-1.464;2023-02-07T15:03:42;31.65;;;10.35;;
29838;SDS011;18669;53.356;-1.464;2023-02-07T15:08:55;22.45;;;8.10;;
29838;SDS011;18669;53.356;-1.464;2023-02-07T15:11:23;23.15;;;8.70;;
29838;SDS011;18669;53.356;-1.464;2023-02-07T15:13:51;22.23;;;8.70;;
29838;SDS011;18669;53.356;-1.464;2023-02-07T15:16:24;34.38;;;11.25;;
29838;SDS011;18669;53.356;-1.464;2023-02-07T15:21:32;19.75;;;9.15;;
29838;SDS011;18669;53.356;-1.464;2023-02-07T15:24:22;21.02;;;10.02;;
29838;SDS011;18669;53.356;-1.464;2023-02-07T15:26:55;19.10;;;9.75;;
29838;SDS011;18669;53.356;-1.464;2023-02-07T15:29:28;24.02;;;9.50;;
29838;SDS011;18669;53.356;-1.464;2023-02-07T15:31:56;22.85;;;11.65;;
29838;SDS011;18669;53.356;-1.464;2023-02-07T15:34:24;28.15;;;13.27;;
29838;SDS011;18669;53.356;-1.464;2023-02-07T15:36:57;19.90;;;11.38;;
29838;SDS011;18669;53.356;-1.464;2023-02-07T15:39:26;15.98;;;6.60;;
29838;SDS011;18669;53.356;-1.464;2023-02-07T15:41:54;20.85;;;5.97;;
29838;SDS011;18669;53.356;-1.464;2023-02-07T15:44:25;13.85;;;5.35;;
29838;SDS011;18669;53.356;-1.464;2023-02-07T15:49:31;21.55;;;5.78;;
29838;SDS011;18669;53.356;-1.464;2023-02-07T15:54:56;22.20;;;8.98;;
29838;SDS011;18669;53.356;-1.464;2023-02-07T16:00:07;19.00;;;6.10;;
29838;SDS011;18669;53.356;-1.464;2023-02-07T16:02:41;23.05;;;9.73;;
29838;SDS011;18669;53.356;-1.464;2023-02-07T16:05:23;22.25;;;8.77;;
29838;SDS011;18669;53.356;-1.464;2023-02-07T16:08:02;16.50;;;6.22;;
29838;SDS011;18669;53.356;-1.464;2023-02-07T16:10:51;14.55;;;5.30;;
29838;SDS011;18669;53.356;-1.464;2023-02-07T16:13:19;17.63;;;7.05;;
29838;SDS011;18669;53.356;-1.464;2023-02-07T16:15:54;19.65;;;7.30;;
29838;SDS011;18669;53.356;-1.464;2023-02-07T16:18:40;26.55;;;11.85;;
29838;SDS011;18669;53.356;-1.464;2023-02-07T16:21:20;27.08;;;13.13;;
29838;SDS011;18669;53.356;-1.464;2023-02-07T16:23:50;36.13;;;16.13;;
29838;SDS011;18669;53.356;-1.464;2023-02-07T16:26:21;39.15;;;17.70;;
29838;SDS011;18669;53.356;-1.464;2023-02-07T16:28:50;45.72;;;15.27;;
29838;SDS011;18669;53.356;-1.464;2023-02-07T16:33:42;24.05;;;11.35;;
29838;SDS011;18669;53.356;-1.464;2023-02-07T16:36:10;43.05;;;19.23;;
29838;SDS011;18669;53.356;-1.464;2023-02-07T16:38:39;64.95;;;33.42;;
29838;SDS011;18669;53.356;-1.464;2023-02-07T16:41:05;63.47;;;32.10;;
29838;SDS011;18669;53.356;-1.464;2023-02-07T16:46:02;71.60;;;28.83;;
29838;SDS011;18669;53.356;-1.464;2023-02-07T16:48:29;44.70;;;19.27;;
29838;SDS011;18669;53.356;-1.464;2023-02-07T16:50:55;32.72;;;14.70;;
29838;SDS011;18669;53.356;-1.464;2023-02-07T16:53:22;33.95;;;12.07;;
29838;SDS011;18669;53.356;-1.464;2023-02-07T16:55:50;26.77;;;10.05;;
29838;SDS011;18669;53.356;-1.464;2023-02-07T16:58:24;20.90;;;9.55;;
29838;SDS011;18669;53.356;-1.464;2023-02-07T17:00:53;18.40;;;6.95;;
29838;SDS011;18669;53.356;-1.464;2023-02-07T17:03:20;19.27;;;6.60;;
29838;SDS011;18669;53.356;-1.464;2023-02-07T17:05:46;19.63;;;6.47;;
29838;SDS011;18669;53.356;-1.464;2023-02-07T17:08:19;12.95;;;6.05;;
29838;SDS011;18669;53.356;-1.464;2023-02-07T17:11:01;15.43;;;5.47;;
29838;SDS011;18669;53.356;-1.464;2023-02-07T17:13:30;18.15;;;6.03;;
29838;SDS011;18669;53.356;-1.464;2023-02-07T17:15:56;17.83;;;5.50;;
29838;SDS011;18669;53.356;-1.464;2023-02-07T17:18:23;17.17;;;6.68;;
29838;SDS011;18669;53.356;-1.464;2023-02-07T17:20:50;24.10;;;6.78;;
29838;SDS011;18669;53.356;-1.464;2023-02-07T17:23:17;18.85;;;6.53;;
29838;SDS011;18669;53.356;-1.464;2023-02-07T17:25:44;26.75;;;7.57;;
29838;SDS011;18669;53.356;-1.464;2023-02-07T17:28:11;23.85;;;6.85;;
29838;SDS011;18669;53.356;-1.464;2023-02-07T17:30:40;19.40;;;6.63;;
29838;SDS011;18669;53.356;-1.464;2023-02-07T17:33:07;30.58;;;6.95;;
29838;SDS011;18669;53.356;-1.464;2023-02-07T17:35:34;22.83;;;7.18;;
29838;SDS011;18669;53.356;-1.464;2023-02-07T17:38:01;15.55;;;5.85;;
29838;SDS011;18669;53.356;-1.464;2023-02-07T17:40:34;21.17;;;6.90;;